createdAt,value
2023-04-18T00:02:21.286Z,70.09
2023-04-18T00:04:48.069Z,71.24
2023-04-18T00:07:15.744Z,69.93
2023-04-18T00:09:42.944Z,70.23
2023-04-18T00:12:11.003Z,68.94
2023-04-18T00:14:37.726Z,68.71
2023-04-18T00:17:06.018Z,67.81
2023-04-18T00:19:32.614Z,67.09
2023-04-18T00:21:59.077Z,67.27
2023-04-18T00:24:25.564Z,66.02
2023-04-18T00:26:52.030Z,68.54
2023-04-18T00:29:18.527Z,69.33
2023-04-18T00:31:45.004Z,67.88
2023-04-18T00:34:11.645Z,68.62
2023-04-18T00:36:38.201Z,68.90
2023-04-18T00:39:04.698Z,69.01
2023-04-18T00:41:31.165Z,69.27
2023-04-18T00:43:57.730Z,68.15
2023-04-18T00:46:24.185Z,68.62
2023-04-18T00:48:50.921Z,69.93
2023-04-18T00:51:17.808Z,69.42
2023-04-18T00:53:44.889Z,70.42
2023-04-18T00:56:11.756Z,70.81
2023-04-18T00:58:38.277Z,69.38
2023-04-18T01:01:04.874Z,69.60
2023-04-18T01:03:31.465Z,70.94
2023-04-18T01:05:58.811Z,69.82
2023-04-18T01:08:25.524Z,70.69
2023-04-18T01:10:52.040Z,70.33
2023-04-18T01:13:20.321Z,68.96
2023-04-18T01:15:48.898Z,70.63
2023-04-18T01:18:17.029Z,70.64
2023-04-18T01:20:53.848Z,70.02
2023-04-18T01:23:21.100Z,68.81
2023-04-18T01:25:48.221Z,69.49
2023-04-18T01:28:15.598Z,69.28
2023-04-18T01:30:42.103Z,69.64
2023-04-18T01:33:08.579Z,68.12
2023-04-18T01:35:35.227Z,68.18
2023-04-18T01:38:01.869Z,69.82
2023-04-18T01:40:28.630Z,69.14
2023-04-18T01:42:55.114Z,67.58
2023-04-18T01:45:21.996Z,66.89
2023-04-18T01:47:48.559Z,68.32
2023-04-18T01:50:15.113Z,66.96
2023-04-18T01:52:41.584Z,67.62
2023-04-18T01:55:08.439Z,68.12
2023-04-18T01:57:34.913Z,68.62
2023-04-18T02:00:01.364Z,68.08
2023-04-18T02:02:27.956Z,69.22
2023-04-18T02:04:54.508Z,67.97
2023-04-18T02:07:21.001Z,67.26
2023-04-18T02:09:47.482Z,67.97
2023-04-18T02:12:13.937Z,69.42
2023-04-18T02:14:40.412Z,67.64
2023-04-18T02:17:06.897Z,68.85
2023-04-18T02:19:33.366Z,67.99
2023-04-18T02:21:59.869Z,67.19
2023-04-18T02:24:26.361Z,67.32
2023-04-18T02:26:52.902Z,67.18
2023-04-18T02:29:19.344Z,66.21
2023-04-18T02:31:45.896Z,66.72
2023-04-18T02:34:12.586Z,66.73
2023-04-18T02:36:39.366Z,65.75
2023-04-18T02:39:05.837Z,65.12
2023-04-18T02:41:32.296Z,64.39
2023-04-18T02:43:58.760Z,63.88
2023-04-18T02:46:25.303Z,65.62
2023-04-18T02:48:51.835Z,66.00
2023-04-18T02:51:18.315Z,65.05
2023-04-18T02:53:44.797Z,66.10
2023-04-18T02:56:11.286Z,67.83
2023-04-18T02:58:37.737Z,66.35
2023-04-18T03:01:04.248Z,66.28
2023-04-18T03:03:30.844Z,65.42
2023-04-18T03:05:57.326Z,64.75
2023-04-18T03:08:23.880Z,64.44
2023-04-18T03:10:50.357Z,64.27
2023-04-18T03:13:16.882Z,64.24
2023-04-18T03:15:43.397Z,64.18
2023-04-18T03:18:09.917Z,64.82
2023-04-18T03:20:36.415Z,64.79
2023-04-18T03:23:02.907Z,64.07
2023-04-18T03:25:29.380Z,63.79
2023-04-18T03:27:55.867Z,63.73
2023-04-18T03:30:22.768Z,63.52
2023-04-18T03:32:49.335Z,63.43
2023-04-18T03:35:15.949Z,63.48
2023-04-18T03:37:42.458Z,63.98
2023-04-18T03:40:09.410Z,63.71
2023-04-18T03:42:35.890Z,63.27
2023-04-18T03:45:02.383Z,62.63
2023-04-18T03:47:31.176Z,62.45
2023-04-18T03:49:57.667Z,62.07
2023-04-18T03:52:24.146Z,61.81
2023-04-18T03:54:50.630Z,61.70
2023-04-18T03:57:17.112Z,62.05
2023-04-18T03:59:44.423Z,61.40
2023-04-18T04:02:12.162Z,61.21
2023-04-18T04:04:38.691Z,61.33
2023-04-18T04:07:05.285Z,61.29
2023-04-18T04:09:31.805Z,61.29
2023-04-18T04:11:58.289Z,62.31
2023-04-18T04:14:24.762Z,61.48
2023-04-18T04:16:51.940Z,61.58
2023-04-18T04:19:18.455Z,61.26
2023-04-18T04:21:44.891Z,60.98
2023-04-18T04:24:11.517Z,61.03
2023-04-18T04:26:38.244Z,61.17
2023-04-18T04:29:04.741Z,61.23
2023-04-18T04:31:31.270Z,60.95
2023-04-18T04:33:57.772Z,61.11
2023-04-18T04:36:24.274Z,61.27
2023-04-18T04:38:50.729Z,61.65
2023-04-18T04:41:17.243Z,61.64
2023-04-18T04:43:43.744Z,61.84
2023-04-18T04:46:10.277Z,61.99
2023-04-18T04:48:36.785Z,62.03
2023-04-18T04:51:03.346Z,62.59
2023-04-18T04:53:29.843Z,62.64
2023-04-18T04:55:57.740Z,63.25
2023-04-18T04:58:24.197Z,62.86
2023-04-18T05:00:50.686Z,62.95
2023-04-18T05:03:17.376Z,63.09
2023-04-18T05:05:44.259Z,62.65
2023-04-18T05:08:10.748Z,62.73
2023-04-18T05:10:37.280Z,63.00
2023-04-18T05:13:04.714Z,62.83
2023-04-18T05:15:31.853Z,62.13
2023-04-18T05:17:58.791Z,62.07
2023-04-18T05:20:25.313Z,61.46
2023-04-18T05:22:51.823Z,61.67
2023-04-18T05:25:18.813Z,60.94
2023-04-18T05:27:46.020Z,61.18
2023-04-18T05:30:12.579Z,61.17
2023-04-18T05:32:39.103Z,60.88
2023-04-18T05:35:06.939Z,61.22
2023-04-18T05:37:33.527Z,60.62
2023-04-18T05:40:00.882Z,60.51
2023-04-18T05:42:27.732Z,60.56
2023-04-18T05:44:54.303Z,60.32
2023-04-18T05:47:20.850Z,59.90
2023-04-18T05:49:47.323Z,60.31
2023-04-18T05:52:13.834Z,59.88
2023-04-18T05:54:40.327Z,60.25
2023-04-18T05:57:06.839Z,59.86
2023-04-18T05:59:33.316Z,59.99
2023-04-18T06:01:59.861Z,59.34
2023-04-18T06:04:26.528Z,59.67
2023-04-18T06:06:53.129Z,59.35
2023-04-18T06:09:19.603Z,59.01
2023-04-18T06:11:46.684Z,59.23
2023-04-18T06:14:13.505Z,59.12
2023-04-18T06:16:40.233Z,58.82
2023-04-18T06:19:06.761Z,58.82
2023-04-18T06:21:33.287Z,59.05
2023-04-18T06:23:59.746Z,58.80
2023-04-18T06:26:26.350Z,58.25
2023-04-18T06:28:52.926Z,57.73
2023-04-18T06:31:19.415Z,57.73
2023-04-18T06:33:45.893Z,57.66
2023-04-18T06:36:12.437Z,57.33
2023-04-18T06:38:38.927Z,57.39
2023-04-18T06:41:05.439Z,56.87
2023-04-18T06:43:31.935Z,56.56
2023-04-18T06:45:59.118Z,56.92
2023-04-18T06:48:25.666Z,56.16
2023-04-18T06:50:52.153Z,56.08
2023-04-18T06:53:18.625Z,56.09
2023-04-18T06:55:45.135Z,56.61
2023-04-18T06:58:11.703Z,57.25
2023-04-18T07:00:38.189Z,57.79
2023-04-18T07:03:04.837Z,58.04
2023-04-18T07:05:31.429Z,57.87
2023-04-18T07:07:57.885Z,57.57
2023-04-18T07:10:24.483Z,58.66
2023-04-18T07:12:50.986Z,58.75
2023-04-18T07:15:17.514Z,58.08
2023-04-18T07:17:44.031Z,58.47
2023-04-18T07:20:12.229Z,58.90
2023-04-18T07:22:39.609Z,58.60
2023-04-18T07:25:06.356Z,58.77
2023-04-18T07:27:36.782Z,57.43
2023-04-18T07:30:04.343Z,58.35
2023-04-18T07:32:30.830Z,57.85
2023-04-18T07:34:57.318Z,57.61
2023-04-18T07:37:23.841Z,57.07
2023-04-18T07:39:51.022Z,56.66
2023-04-18T07:42:17.631Z,56.66
2023-04-18T07:44:44.130Z,56.87
2023-04-18T07:47:10.763Z,56.43
2023-04-18T07:49:37.672Z,56.46
2023-04-18T07:52:04.922Z,57.00
2023-04-18T07:54:31.385Z,56.87
2023-04-18T07:56:59.384Z,56.98
2023-04-18T07:59:26.318Z,56.48
2023-04-18T08:01:52.910Z,55.98
2023-04-18T08:04:19.566Z,56.68
2023-04-18T08:06:46.104Z,55.97
2023-04-18T08:09:12.703Z,54.63
2023-04-18T08:11:42.078Z,54.07
2023-04-18T08:14:08.561Z,54.23
2023-04-18T08:16:35.052Z,53.92
2023-04-18T08:19:01.548Z,54.12
2023-04-18T08:21:37.519Z,55.00
2023-04-18T08:24:04.346Z,53.68
2023-04-18T08:26:30.828Z,53.65
2023-04-18T08:28:57.366Z,53.64
2023-04-18T08:31:23.866Z,53.43
2023-04-18T08:33:50.412Z,54.33
2023-04-18T08:36:16.866Z,55.54
2023-04-18T08:38:43.381Z,55.07
2023-04-18T08:41:09.897Z,56.13
2023-04-18T08:43:37.486Z,55.68
2023-04-18T08:46:04.070Z,54.59
2023-04-18T08:48:30.628Z,54.33
2023-04-18T08:50:59.282Z,53.50
2023-04-18T08:53:26.733Z,53.92
2023-04-18T08:55:56.748Z,54.19
2023-04-18T08:58:24.003Z,54.77
2023-04-18T09:00:51.916Z,54.81
2023-04-18T09:03:35.583Z,54.89
2023-04-18T09:06:13.706Z,54.43
2023-04-18T09:08:42.386Z,54.60
2023-04-18T09:11:29.868Z,54.45
2023-04-18T09:13:57.368Z,54.54
2023-04-18T09:16:24.287Z,53.81
2023-04-18T09:19:14.438Z,52.65
2023-04-18T09:21:43.263Z,53.24
2023-04-18T09:24:21.373Z,53.06
2023-04-18T09:26:48.651Z,53.31
2023-04-18T09:29:15.748Z,52.90
2023-04-18T09:31:59.643Z,53.09
2023-04-18T09:34:27.369Z,52.86
2023-04-18T09:37:11.488Z,52.62
2023-04-18T09:39:40.187Z,53.56
2023-04-18T09:42:07.870Z,53.06
2023-04-18T09:44:34.450Z,52.87
2023-04-18T09:47:00.933Z,52.01
2023-04-18T09:49:27.486Z,52.35
2023-04-18T09:51:55.662Z,51.87
2023-04-18T09:54:25.681Z,53.32
2023-04-18T09:56:53.176Z,53.29
2023-04-18T09:59:42.290Z,53.16
2023-04-18T10:02:19.631Z,53.52
2023-04-18T10:04:49.015Z,53.71
2023-04-18T10:07:16.756Z,53.54
2023-04-18T10:09:46.572Z,53.43
2023-04-18T10:12:14.293Z,53.89
2023-04-18T10:14:43.061Z,53.62
2023-04-18T10:17:10.195Z,53.84
2023-04-18T10:19:38.499Z,53.14
2023-04-18T10:22:04.970Z,53.56
2023-04-18T10:24:58.159Z,54.12
2023-04-18T10:27:49.391Z,53.85
2023-04-18T10:30:16.950Z,53.34
2023-04-18T10:32:45.745Z,53.66
2023-04-18T10:35:12.268Z,53.41
2023-04-18T10:37:51.915Z,53.35
2023-04-18T10:40:32.862Z,54.40
2023-04-18T10:42:59.352Z,54.38
2023-04-18T10:45:27.837Z,53.97
2023-04-18T10:48:27.626Z,53.96
2023-04-18T10:51:11.936Z,53.07
2023-04-18T10:53:38.480Z,53.23
2023-04-18T10:56:06.306Z,52.05
2023-04-18T10:58:34.647Z,52.11
2023-04-18T11:01:04.409Z,52.22
2023-04-18T11:03:33.241Z,52.13
2023-04-18T11:06:03.543Z,52.73
2023-04-18T11:08:30.481Z,52.09
2023-04-18T11:11:00.777Z,52.70
2023-04-18T11:13:27.887Z,52.57
2023-04-18T11:15:54.413Z,52.20
2023-04-18T11:18:20.935Z,51.55
2023-04-18T11:20:49.262Z,51.24
2023-04-18T11:23:22.312Z,51.42
2023-04-18T11:25:49.871Z,51.33
2023-04-18T11:28:20.781Z,51.52
2023-04-18T11:30:48.025Z,51.94
2023-04-18T11:33:15.462Z,51.43
2023-04-18T11:35:44.666Z,50.99
2023-04-18T11:38:13.607Z,50.50
2023-04-18T11:40:50.747Z,50.84
2023-04-18T11:43:25.860Z,51.07
2023-04-18T11:45:59.959Z,51.47
2023-04-18T11:48:43.432Z,50.96
2023-04-18T11:51:33.663Z,49.08
2023-04-18T11:54:00.141Z,49.32
2023-04-18T11:56:26.812Z,49.15
2023-04-18T11:58:53.423Z,49.08
2023-04-18T12:01:23.097Z,49.24
2023-04-18T12:04:04.858Z,48.87
2023-04-18T12:06:52.798Z,49.16
2023-04-18T12:09:22.358Z,49.79
2023-04-18T12:12:02.758Z,49.81
2023-04-18T12:14:30.264Z,49.05
2023-04-18T12:16:56.759Z,48.45
2023-04-18T12:19:27.624Z,47.62
2023-04-18T12:22:00.214Z,48.24
2023-04-18T12:24:28.128Z,47.09
2023-04-18T12:26:55.607Z,46.96
2023-04-18T12:29:22.131Z,46.65
2023-04-18T12:31:48.670Z,46.26
2023-04-18T12:34:15.424Z,46.86
2023-04-18T12:36:42.783Z,46.43
2023-04-18T12:39:09.352Z,45.19
2023-04-18T12:41:36.136Z,45.45
2023-04-18T12:44:02.916Z,44.91
2023-04-18T12:46:29.422Z,44.09
2023-04-18T12:48:55.950Z,44.62
2023-04-18T12:51:25.296Z,43.53
2023-04-18T12:53:51.967Z,43.53
2023-04-18T12:56:18.478Z,43.34
2023-04-18T12:58:44.996Z,42.71
2023-04-18T13:01:12.019Z,41.88
2023-04-18T13:03:38.730Z,41.60
2023-04-18T13:06:05.617Z,41.35
2023-04-18T13:08:32.265Z,41.68
2023-04-18T13:10:58.733Z,41.11
2023-04-18T13:13:25.277Z,40.83
2023-04-18T13:15:51.829Z,40.41
2023-04-18T13:18:18.505Z,39.90
2023-04-18T13:20:44.960Z,39.23
2023-04-18T13:23:11.451Z,38.23
2023-04-18T13:25:38.506Z,37.50
2023-04-18T13:28:05.170Z,36.70
2023-04-18T13:30:31.697Z,36.17
2023-04-18T13:32:58.428Z,36.20
2023-04-18T13:35:24.978Z,35.54
2023-04-18T13:37:51.507Z,35.07
2023-04-18T13:40:18.092Z,34.77
2023-04-18T13:42:44.592Z,34.68
2023-04-18T13:45:11.298Z,34.39
2023-04-18T13:47:37.981Z,34.24
2023-04-18T13:50:04.821Z,33.67
2023-04-18T13:52:31.405Z,33.38
2023-04-18T13:54:57.894Z,32.87
2023-04-18T13:57:24.414Z,32.71
2023-04-18T13:59:50.878Z,31.93
2023-04-18T14:02:17.536Z,31.81
2023-04-18T14:04:44.167Z,31.92
2023-04-18T14:07:10.780Z,31.48
2023-04-18T14:09:37.352Z,31.49
2023-04-18T14:12:04.093Z,32.13
2023-04-18T14:14:30.578Z,32.82
2023-04-18T14:16:57.100Z,33.04
2023-04-18T14:19:23.634Z,33.36
2023-04-18T14:21:50.149Z,32.67
2023-04-18T14:24:16.648Z,32.07
2023-04-18T14:26:43.364Z,31.58
2023-04-18T14:29:09.827Z,31.24
2023-04-18T14:31:36.363Z,29.91
2023-04-18T14:34:02.877Z,29.58
2023-04-18T14:36:29.338Z,29.23
2023-04-18T14:38:55.829Z,28.27
2023-04-18T14:41:22.342Z,28.26
2023-04-18T14:43:48.824Z,27.69
2023-04-18T14:46:15.671Z,27.69
2023-04-18T14:48:44.529Z,27.75
2023-04-18T14:51:11.023Z,27.24
2023-04-18T14:53:37.784Z,27.05
2023-04-18T14:56:04.365Z,26.94
2023-04-18T14:58:30.808Z,27.17
2023-04-18T15:00:57.325Z,27.94
2023-04-18T15:03:23.965Z,29.22
2023-04-18T15:05:50.521Z,31.11
2023-04-18T15:08:17.008Z,31.98
2023-04-18T15:10:43.564Z,32.70
2023-04-18T15:13:10.810Z,33.37
2023-04-18T15:15:37.639Z,33.16
2023-04-18T15:18:04.388Z,33.96
2023-04-18T15:20:31.018Z,32.92
2023-04-18T15:22:57.633Z,33.00
2023-04-18T15:25:24.142Z,31.74
2023-04-18T15:27:50.621Z,31.90
2023-04-18T15:30:17.102Z,30.89
2023-04-18T15:32:43.594Z,30.67
2023-04-18T15:35:11.483Z,30.57
2023-04-18T15:37:38.233Z,32.06
2023-04-18T15:40:05.374Z,33.38
2023-04-18T15:42:31.817Z,34.24
2023-04-18T15:44:58.277Z,35.21
2023-04-18T15:47:24.791Z,35.12
2023-04-18T15:49:51.313Z,35.17
2023-04-18T15:52:17.784Z,35.69
2023-04-18T15:54:44.251Z,36.16
2023-04-18T15:57:10.812Z,36.05
2023-04-18T15:59:37.588Z,35.95
2023-04-18T16:02:04.270Z,36.91
2023-04-18T16:04:30.992Z,37.23
2023-04-18T16:06:57.495Z,37.03
2023-04-18T16:09:23.982Z,37.37
2023-04-18T16:11:50.462Z,38.37
2023-04-18T16:14:17.016Z,38.76
2023-04-18T16:16:43.540Z,39.24
2023-04-18T16:19:10.017Z,37.95
2023-04-18T16:21:36.522Z,36.68
2023-04-18T16:24:03.076Z,34.67
2023-04-18T16:26:29.561Z,33.08
2023-04-18T16:28:56.005Z,32.34
2023-04-18T16:31:22.954Z,31.95
2023-04-18T16:33:49.659Z,31.33
2023-04-18T16:36:16.169Z,30.55
2023-04-18T16:38:42.715Z,30.02
2023-04-18T16:41:09.214Z,29.27
2023-04-18T16:43:35.659Z,28.37
2023-04-18T16:46:02.586Z,27.30
2023-04-18T16:48:29.209Z,26.48
2023-04-18T16:50:56.273Z,25.69
2023-04-18T16:53:23.884Z,25.63
2023-04-18T16:55:50.787Z,25.02
2023-04-18T16:58:17.279Z,24.65
2023-04-18T17:00:44.057Z,24.40
2023-04-18T17:03:10.654Z,24.31
2023-04-18T17:05:37.326Z,24.42
2023-04-18T17:08:03.942Z,24.23
2023-04-18T17:10:30.835Z,24.38
2023-04-18T17:12:58.287Z,24.64
2023-04-18T17:15:25.969Z,24.50
2023-04-18T17:17:52.542Z,25.10
2023-04-18T17:20:19.197Z,25.12
2023-04-18T17:22:45.646Z,25.38
2023-04-18T17:25:12.227Z,25.00
2023-04-18T17:27:39.720Z,25.19
2023-04-18T17:30:07.881Z,24.91
2023-04-18T17:32:34.390Z,25.91
2023-04-18T17:35:00.936Z,26.23
2023-04-18T17:37:27.444Z,26.54
2023-04-18T17:39:53.921Z,27.55
2023-04-18T17:42:20.652Z,28.79
2023-04-18T17:44:47.204Z,29.34
2023-04-18T17:47:13.717Z,33.00
2023-04-18T17:49:40.238Z,35.77
2023-04-18T17:52:06.759Z,36.35
2023-04-18T17:54:33.280Z,36.67
2023-04-18T17:56:59.929Z,37.77
2023-04-18T17:59:26.524Z,38.76
2023-04-18T18:01:53.001Z,40.07
2023-04-18T18:04:19.682Z,40.30
2023-04-18T18:06:56.158Z,41.84
2023-04-18T18:09:23.000Z,42.39
2023-04-18T18:11:49.598Z,43.80
2023-04-18T18:14:16.225Z,44.08
2023-04-18T18:16:43.637Z,44.20
2023-04-18T18:19:10.290Z,44.46
2023-04-18T18:21:36.816Z,45.81
2023-04-18T18:24:03.611Z,45.84
2023-04-18T18:26:30.189Z,46.59
2023-04-18T18:28:56.727Z,47.17
2023-04-18T18:31:23.259Z,46.52
2023-04-18T18:33:49.984Z,47.51
2023-04-18T18:36:16.684Z,48.64
2023-04-18T18:38:43.208Z,50.30
2023-04-18T18:41:09.681Z,50.09
2023-04-18T18:43:36.249Z,51.23
2023-04-18T18:46:02.828Z,51.62
2023-04-18T18:48:29.593Z,51.71
2023-04-18T18:50:56.085Z,52.35
2023-04-18T18:53:22.647Z,53.06
2023-04-18T18:55:49.344Z,52.64
2023-04-18T18:58:15.864Z,53.27
2023-04-18T19:00:42.364Z,53.02
2023-04-18T19:03:09.059Z,52.67
2023-04-18T19:05:36.413Z,53.22
2023-04-18T19:08:02.953Z,52.48
2023-04-18T19:10:29.587Z,52.52
2023-04-18T19:12:56.376Z,52.66
2023-04-18T19:15:23.387Z,52.51
2023-04-18T19:17:49.981Z,52.90
2023-04-18T19:20:16.579Z,52.50
2023-04-18T19:22:43.061Z,52.37
2023-04-18T19:25:09.780Z,52.53
2023-04-18T19:27:36.283Z,53.11
2023-04-18T19:30:02.885Z,52.63
2023-04-18T19:32:30.234Z,52.20
2023-04-18T19:34:56.721Z,52.92
2023-04-18T19:37:23.174Z,54.05
2023-04-18T19:39:49.623Z,53.65
2023-04-18T19:42:16.302Z,53.17
2023-04-18T19:44:42.850Z,53.45
2023-04-18T19:47:09.404Z,52.75
2023-04-18T19:49:35.863Z,53.11
2023-04-18T19:52:02.318Z,53.62
2023-04-18T19:54:31.458Z,53.38
2023-04-18T19:56:57.907Z,52.36
2023-04-18T19:59:24.403Z,51.08
2023-04-18T20:01:50.865Z,51.88
2023-04-18T20:04:17.453Z,52.39
2023-04-18T20:06:44.182Z,52.25
2023-04-18T20:09:10.614Z,52.72
2023-04-18T20:11:37.095Z,53.17
2023-04-18T20:14:03.646Z,53.30
2023-04-18T20:16:30.195Z,53.18
2023-04-18T20:18:56.765Z,53.84
2023-04-18T20:21:23.255Z,54.39
2023-04-18T20:23:49.738Z,54.17
2023-04-18T20:26:16.199Z,53.40
2023-04-18T20:28:42.669Z,55.18
2023-04-18T20:31:11.128Z,54.56
2023-04-18T20:33:37.618Z,54.12
2023-04-18T20:36:04.848Z,54.66
2023-04-18T20:38:31.356Z,54.80
2023-04-18T20:40:57.997Z,54.78
2023-04-18T20:43:24.461Z,53.47
2023-04-18T20:45:51.138Z,54.19
2023-04-18T20:48:18.526Z,54.48
2023-04-18T20:50:45.288Z,54.39
2023-04-18T20:53:11.750Z,54.11
2023-04-18T20:55:38.179Z,54.91
2023-04-18T20:58:04.667Z,54.25
2023-04-18T21:00:31.169Z,55.18
2023-04-18T21:02:57.768Z,55.30
2023-04-18T21:05:24.447Z,55.19
2023-04-18T21:07:50.956Z,55.26
2023-04-18T21:10:17.433Z,56.13
2023-04-18T21:12:43.911Z,54.64
2023-04-18T21:15:10.830Z,55.98
2023-04-18T21:17:37.314Z,55.29
2023-04-18T21:20:04.036Z,56.22
2023-04-18T21:22:30.568Z,55.99
2023-04-18T21:24:57.061Z,54.97
2023-04-18T21:27:23.559Z,55.21
2023-04-18T21:29:50.036Z,54.81
2023-04-18T21:32:16.478Z,55.31
2023-04-18T21:34:42.980Z,55.06
2023-04-18T21:37:09.436Z,55.59
2023-04-18T21:39:35.908Z,55.31
2023-04-18T21:42:02.379Z,55.96
2023-04-18T21:44:28.861Z,54.92
2023-04-18T21:46:56.486Z,54.88
2023-04-18T21:49:22.983Z,54.65
2023-04-18T21:51:49.499Z,54.28
2023-04-18T21:54:16.210Z,54.63
2023-04-18T21:56:42.809Z,54.23
2023-04-18T21:59:09.595Z,53.68
2023-04-18T22:01:36.107Z,54.07
2023-04-18T22:04:02.750Z,55.25
2023-04-18T22:06:30.782Z,55.01
2023-04-18T22:08:57.232Z,54.53
2023-04-18T22:11:23.945Z,55.53
2023-04-18T22:13:50.632Z,56.74
2023-04-18T22:16:17.124Z,56.60
2023-04-18T22:18:43.631Z,56.79
2023-04-18T22:21:10.091Z,58.13
2023-04-18T22:23:36.553Z,58.36
2023-04-18T22:26:03.059Z,58.06
2023-04-18T22:28:29.565Z,57.66
2023-04-18T22:30:56.214Z,56.33
2023-04-18T22:33:22.738Z,56.82
2023-04-18T22:35:49.217Z,56.63
2023-04-18T22:38:15.710Z,56.31
2023-04-18T22:40:42.160Z,55.86
2023-04-18T22:43:08.670Z,56.54
2023-04-18T22:45:35.151Z,56.57
2023-04-18T22:48:01.690Z,56.02
2023-04-18T22:50:28.200Z,56.64
2023-04-18T22:52:54.688Z,56.45
2023-04-18T22:55:21.174Z,56.23
2023-04-18T22:57:47.674Z,55.79
2023-04-18T23:00:14.576Z,56.53
2023-04-18T23:02:41.191Z,56.21
2023-04-18T23:05:08.308Z,57.29
2023-04-18T23:07:34.780Z,56.28
2023-04-18T23:10:02.972Z,55.72
2023-04-18T23:12:29.460Z,56.48
2023-04-18T23:14:55.921Z,55.67
2023-04-18T23:17:22.593Z,54.94
2023-04-18T23:19:49.131Z,55.22
2023-04-18T23:22:15.640Z,54.91
2023-04-18T23:24:42.156Z,55.23
2023-04-18T23:27:08.663Z,54.60
2023-04-18T23:29:38.884Z,54.91
2023-04-18T23:32:05.745Z,55.09
2023-04-18T23:34:32.276Z,55.24
2023-04-18T23:37:02.108Z,54.99
2023-04-18T23:39:28.550Z,54.78
2023-04-18T23:41:55.043Z,53.97
2023-04-18T23:44:21.974Z,54.23
2023-04-18T23:46:48.565Z,54.42
2023-04-18T23:49:16.007Z,54.32
2023-04-18T23:51:42.519Z,54.05
2023-04-18T23:54:09.011Z,54.51
2023-04-18T23:56:35.559Z,54.67
2023-04-18T23:59:02.187Z,54.54
